createdAt,value
2023-04-15T00:01:19.927Z,2.00
2023-04-15T00:03:50.044Z,2.90
2023-04-15T00:06:18.332Z,2.27
2023-04-15T00:08:46.584Z,2.37
2023-04-15T00:11:15.195Z,2.40
2023-04-15T00:13:44.182Z,3.13
2023-04-15T00:16:12.581Z,2.80
2023-04-15T00:18:41.392Z,2.60
2023-04-15T00:21:11.132Z,2.53
2023-04-15T00:23:39.383Z,2.70
2023-04-15T00:26:07.575Z,3.37
2023-04-15T00:28:35.846Z,2.53
2023-04-15T00:31:04.915Z,2.90
2023-04-15T00:33:33.520Z,3.10
2023-04-15T00:36:01.841Z,3.20
2023-04-15T00:38:31.623Z,3.20
2023-04-15T00:41:00.798Z,6.67
2023-04-15T00:43:29.769Z,3.50
2023-04-15T00:46:00.349Z,4.53
2023-04-15T00:48:29.558Z,5.80
2023-04-15T00:50:57.994Z,5.70
2023-04-15T00:53:26.287Z,3.50
2023-04-15T00:55:56.080Z,4.60
2023-04-15T00:58:24.751Z,3.37
2023-04-15T01:00:54.577Z,4.40
2023-04-15T01:03:23.069Z,4.30
2023-04-15T01:05:53.060Z,5.43
2023-04-15T01:08:21.280Z,3.30
2023-04-15T01:10:49.928Z,3.10
2023-04-15T01:13:19.632Z,3.30
2023-04-15T01:15:47.929Z,3.67
2023-04-15T01:18:16.878Z,3.37
2023-04-15T01:20:45.164Z,2.70
2023-04-15T01:23:13.578Z,3.57
2023-04-15T01:25:45.064Z,3.73
2023-04-15T01:28:13.986Z,3.67
2023-04-15T01:30:42.175Z,3.27
2023-04-15T01:33:10.510Z,3.87
2023-04-15T01:35:40.046Z,3.67
2023-04-15T01:38:10.063Z,4.27
2023-04-15T01:40:39.648Z,3.07
2023-04-15T01:43:09.625Z,3.90
2023-04-15T01:45:37.951Z,3.10
2023-04-15T01:48:06.464Z,2.83
2023-04-15T01:50:36.959Z,3.47
2023-04-15T01:53:05.377Z,3.10
2023-04-15T01:55:33.594Z,2.90
2023-04-15T01:58:01.944Z,4.60
2023-04-15T02:00:32.752Z,3.73
2023-04-15T02:03:01.386Z,3.10
2023-04-15T02:05:29.898Z,3.23
2023-04-15T02:07:58.776Z,2.83
2023-04-15T02:10:27.375Z,3.67
2023-04-15T02:12:55.617Z,3.40
2023-04-15T02:15:23.952Z,5.17
2023-04-15T02:17:55.504Z,3.60
2023-04-15T02:20:24.416Z,3.50
2023-04-15T02:22:52.467Z,3.17
2023-04-15T02:25:21.159Z,3.17
2023-04-15T02:27:49.392Z,3.67
2023-04-15T02:30:18.684Z,3.67
2023-04-15T02:32:48.052Z,4.80
2023-04-15T02:35:19.293Z,3.73
2023-04-15T02:37:47.564Z,4.80
2023-04-15T02:40:15.789Z,3.93
2023-04-15T02:42:44.512Z,4.93
2023-04-15T02:45:15.854Z,4.87
2023-04-15T02:47:46.119Z,4.00
2023-04-15T02:50:15.296Z,4.03
2023-04-15T02:52:45.992Z,3.90
2023-04-15T02:55:14.584Z,5.07
2023-04-15T02:57:42.806Z,7.27
2023-04-15T03:00:13.561Z,3.97
2023-04-15T03:02:44.467Z,4.00
2023-04-15T03:05:14.201Z,4.73
2023-04-15T03:07:50.244Z,4.53
2023-04-15T03:10:18.996Z,6.57
2023-04-15T03:12:48.185Z,7.93
2023-04-15T03:15:21.512Z,5.73
2023-04-15T03:17:52.968Z,4.67
2023-04-15T03:20:21.301Z,4.17
2023-04-15T03:22:51.563Z,4.90
2023-04-15T03:25:21.698Z,4.03
2023-04-15T03:27:50.025Z,4.40
2023-04-15T03:30:19.034Z,4.07
2023-04-15T03:32:47.718Z,3.83
2023-04-15T03:35:16.624Z,3.83
2023-04-15T03:37:44.860Z,4.60
2023-04-15T03:40:14.814Z,4.43
2023-04-15T03:42:43.101Z,4.93
2023-04-15T03:45:12.352Z,4.50
2023-04-15T03:47:40.784Z,5.10
2023-04-15T03:50:10.059Z,3.90
2023-04-15T03:52:38.318Z,3.47
2023-04-15T03:55:06.996Z,4.67
2023-04-15T03:57:39.957Z,3.50
2023-04-15T04:00:10.689Z,4.33
2023-04-15T04:02:41.959Z,4.83
2023-04-15T04:05:10.818Z,4.17
2023-04-15T04:07:38.909Z,3.00
2023-04-15T04:10:08.555Z,2.80
2023-04-15T04:12:36.753Z,3.13
2023-04-15T04:15:07.133Z,3.20
2023-04-15T04:17:35.438Z,4.13
2023-04-15T04:20:03.758Z,3.93
2023-04-15T04:22:32.063Z,2.90
2023-04-15T04:25:02.704Z,4.63
2023-04-15T04:27:31.131Z,2.80
2023-04-15T04:29:59.347Z,2.77
2023-04-15T04:32:29.077Z,2.53
2023-04-15T04:34:57.425Z,2.53
2023-04-15T04:37:25.869Z,3.33
2023-04-15T04:39:53.962Z,4.50
2023-04-15T04:42:22.334Z,2.23
2023-04-15T04:44:50.593Z,2.60
2023-04-15T04:47:18.733Z,5.87
2023-04-15T04:49:48.428Z,2.27
2023-04-15T04:52:16.902Z,2.10
2023-04-15T04:54:45.052Z,2.43
2023-04-15T04:57:13.806Z,2.40
2023-04-15T04:59:42.192Z,2.50
2023-04-15T05:02:10.614Z,2.33
2023-04-15T05:04:38.854Z,2.50
2023-04-15T05:07:08.526Z,3.50
2023-04-15T05:09:37.377Z,2.30
2023-04-15T05:12:05.973Z,2.40
2023-04-15T05:14:34.191Z,2.37
2023-04-15T05:17:02.309Z,2.23
2023-04-15T05:19:30.562Z,2.00
2023-04-15T05:21:58.897Z,2.37
2023-04-15T05:24:28.753Z,3.20
2023-04-15T05:26:57.493Z,3.03
2023-04-15T05:29:25.864Z,3.40
2023-04-15T05:31:54.256Z,2.60
2023-04-15T05:34:22.574Z,2.37
2023-04-15T05:36:50.690Z,3.57
2023-04-15T05:39:19.022Z,3.83
2023-04-15T05:41:48.668Z,3.10
2023-04-15T05:44:16.951Z,2.63
2023-04-15T05:46:45.498Z,2.43
2023-04-15T05:49:13.866Z,2.57
2023-04-15T05:51:42.307Z,3.20
2023-04-15T05:54:11.007Z,2.50
2023-04-15T05:56:39.317Z,2.60
2023-04-15T05:59:08.814Z,2.67
2023-04-15T06:01:37.046Z,3.73
2023-04-15T06:04:05.458Z,3.10
2023-04-15T06:06:33.782Z,3.00
2023-04-15T06:09:02.349Z,2.83
2023-04-15T06:11:31.506Z,3.43
2023-04-15T06:13:59.821Z,3.80
2023-04-15T06:16:29.493Z,3.43
2023-04-15T06:18:57.779Z,4.80
2023-04-15T06:21:27.164Z,2.93
2023-04-15T06:23:56.763Z,2.30
2023-04-15T06:26:25.218Z,2.13
2023-04-15T06:28:53.485Z,2.47
2023-04-15T06:31:21.878Z,2.60
2023-04-15T06:33:51.496Z,5.37
2023-04-15T06:36:19.843Z,3.13
2023-04-15T06:38:48.105Z,2.77
2023-04-15T06:41:16.470Z,2.50
2023-04-15T06:43:44.915Z,2.30
2023-04-15T06:46:13.153Z,2.47
2023-04-15T06:48:41.332Z,2.60
2023-04-15T06:51:11.071Z,3.87
2023-04-15T06:53:41.192Z,2.60
2023-04-15T06:56:09.992Z,2.67
2023-04-15T06:58:38.449Z,2.50
2023-04-15T07:01:07.175Z,2.67
2023-04-15T07:03:35.966Z,2.60
2023-04-15T07:06:06.642Z,2.43
2023-04-15T07:08:36.354Z,2.53
2023-04-15T07:11:04.888Z,3.70
2023-04-15T07:13:33.762Z,5.27
2023-04-15T07:16:02.115Z,2.70
2023-04-15T07:18:30.277Z,2.30
2023-04-15T07:20:58.443Z,2.63
2023-04-15T07:23:26.704Z,2.80
2023-04-15T07:25:57.115Z,2.90
2023-04-15T07:28:25.632Z,3.40
2023-04-15T07:30:54.007Z,2.57
2023-04-15T07:33:22.283Z,3.70
2023-04-15T07:35:50.801Z,2.90
2023-04-15T07:38:19.689Z,3.07
2023-04-15T07:40:48.472Z,3.07
2023-04-15T07:43:19.020Z,3.10
2023-04-15T07:45:47.386Z,2.67
2023-04-15T07:48:16.157Z,3.70
2023-04-15T07:50:44.497Z,3.10
2023-04-15T07:53:12.851Z,3.00
2023-04-15T07:55:41.216Z,3.83
2023-04-15T07:58:09.548Z,4.00
2023-04-15T08:00:39.791Z,3.60
2023-04-15T08:03:08.265Z,3.23
2023-04-15T08:05:36.856Z,3.07
2023-04-15T08:08:05.097Z,2.47
2023-04-15T08:10:33.474Z,3.33
2023-04-15T08:13:01.796Z,3.00
2023-04-15T08:15:30.111Z,2.80
2023-04-15T08:18:00.893Z,2.63
2023-04-15T08:20:29.610Z,2.53
2023-04-15T08:22:58.393Z,2.50
2023-04-15T08:25:26.663Z,2.57
2023-04-15T08:27:57.238Z,2.80
2023-04-15T08:30:25.334Z,2.83
2023-04-15T08:32:53.739Z,4.90
2023-04-15T08:35:23.360Z,5.03
2023-04-15T08:37:51.431Z,8.00
2023-04-15T08:40:19.895Z,3.30
2023-04-15T08:42:51.898Z,5.43
2023-04-15T08:45:21.330Z,6.30
2023-04-15T08:47:55.898Z,3.57
2023-04-15T08:50:28.012Z,2.97
2023-04-15T08:52:57.264Z,2.47
2023-04-15T08:55:28.125Z,4.03
2023-04-15T08:57:57.452Z,3.03
2023-04-15T09:00:26.105Z,4.10
2023-04-15T09:02:54.636Z,6.13
2023-04-15T09:05:23.361Z,4.87
2023-04-15T09:07:53.464Z,5.53
2023-04-15T09:10:21.741Z,2.50
2023-04-15T09:12:49.968Z,2.70
2023-04-15T09:15:19.072Z,3.93
2023-04-15T09:17:48.786Z,2.60
2023-04-15T09:20:18.956Z,2.30
2023-04-15T09:22:49.455Z,2.67
2023-04-15T09:25:34.800Z,2.67
2023-04-15T09:28:04.015Z,2.67
2023-04-15T09:30:32.289Z,5.03
2023-04-15T09:33:02.380Z,2.57
2023-04-15T09:35:31.117Z,5.13
2023-04-15T09:38:04.943Z,5.23
2023-04-15T09:40:36.474Z,2.70
2023-04-15T09:43:05.295Z,1.90
2023-04-15T09:45:34.255Z,2.13
2023-04-15T09:48:17.544Z,3.03
2023-04-15T09:50:46.275Z,2.30
2023-04-15T09:53:19.216Z,2.40
2023-04-15T09:55:52.099Z,2.10
2023-04-15T09:58:21.079Z,2.67
2023-04-15T10:00:51.197Z,2.30
2023-04-15T10:03:21.935Z,2.20
2023-04-15T10:05:51.605Z,2.40
2023-04-15T10:08:21.791Z,3.60
2023-04-15T10:10:51.963Z,2.93
2023-04-15T10:13:22.464Z,3.97
2023-04-15T10:15:53.582Z,1.93
2023-04-15T10:18:22.972Z,2.50
2023-04-15T10:20:52.076Z,4.23
2023-04-15T10:23:21.845Z,3.00
2023-04-15T10:25:54.066Z,2.93
2023-04-15T10:28:22.935Z,1.90
2023-04-15T10:30:52.182Z,2.30
2023-04-15T10:33:23.474Z,3.53
2023-04-15T10:35:53.181Z,2.80
2023-04-15T10:38:35.671Z,2.53
2023-04-15T10:41:21.180Z,3.53
2023-04-15T10:43:51.816Z,2.40
2023-04-15T10:46:22.061Z,2.40
2023-04-15T10:48:51.686Z,2.30
2023-04-15T10:51:29.708Z,2.00
2023-04-15T10:53:59.593Z,2.10
2023-04-15T10:56:30.175Z,3.93
2023-04-15T10:59:00.897Z,3.90
2023-04-15T11:01:54.265Z,3.70
2023-04-15T11:04:54.319Z,3.33
2023-04-15T11:07:36.067Z,2.33
2023-04-15T11:10:05.035Z,3.80
2023-04-15T11:12:38.816Z,2.63
2023-04-15T11:15:30.415Z,2.30
2023-04-15T11:17:59.023Z,1.87
2023-04-15T11:20:27.611Z,2.30
2023-04-15T11:23:13.907Z,3.43
2023-04-15T11:25:43.928Z,2.93
2023-04-15T11:28:14.438Z,1.83
2023-04-15T11:30:43.849Z,2.07
2023-04-15T11:33:13.950Z,3.87
2023-04-15T11:35:42.710Z,11.63
2023-04-15T11:38:12.664Z,6.93
2023-04-15T11:40:43.836Z,2.17
2023-04-15T11:43:16.848Z,3.40
2023-04-15T11:45:54.169Z,2.13
2023-04-15T11:48:24.327Z,3.23
2023-04-15T11:50:57.035Z,2.10
2023-04-15T11:53:26.102Z,2.07
2023-04-15T11:55:55.410Z,2.23
2023-04-15T11:58:28.025Z,2.43
2023-04-15T12:01:00.323Z,3.40
2023-04-15T12:03:30.427Z,2.47
2023-04-15T12:06:18.008Z,2.30
2023-04-15T12:09:06.284Z,2.67
2023-04-15T12:11:54.225Z,1.53
2023-04-15T12:14:28.409Z,1.93
2023-04-15T12:17:00.451Z,2.90
2023-04-15T12:19:30.912Z,1.83
2023-04-15T12:22:01.023Z,2.00
2023-04-15T12:24:32.431Z,1.83
2023-04-15T12:27:04.795Z,1.67
2023-04-15T12:29:35.527Z,1.87
2023-04-15T12:32:07.677Z,2.20
2023-04-15T12:34:38.357Z,1.73
2023-04-15T12:37:09.649Z,1.80
2023-04-15T12:39:40.027Z,1.70
2023-04-15T12:42:09.172Z,1.63
2023-04-15T12:44:40.090Z,1.97
2023-04-15T12:47:09.621Z,1.83
2023-04-15T12:49:38.277Z,1.70
2023-04-15T12:52:06.921Z,2.07
2023-04-15T12:54:36.323Z,1.70
2023-04-15T12:57:07.272Z,1.90
2023-04-15T12:59:36.199Z,2.10
2023-04-15T13:02:06.111Z,1.87
2023-04-15T13:04:34.442Z,1.80
2023-04-15T13:07:03.206Z,1.97
2023-04-15T13:09:31.517Z,1.90
2023-04-15T13:12:00.157Z,2.47
2023-04-15T13:14:28.705Z,1.80
2023-04-15T13:16:57.145Z,1.90
2023-04-15T13:19:27.020Z,2.67
2023-04-15T13:21:55.695Z,1.80
2023-04-15T13:24:23.949Z,1.93
2023-04-15T13:26:52.266Z,3.33
2023-04-15T13:29:20.652Z,1.90
2023-04-15T13:31:49.062Z,1.97
2023-04-15T13:34:17.402Z,1.70
2023-04-15T13:36:47.070Z,1.70
2023-04-15T13:39:15.299Z,1.63
2023-04-15T13:41:43.498Z,1.70
2023-04-15T13:44:12.432Z,2.20
2023-04-15T13:46:42.050Z,2.23
2023-04-15T13:49:10.511Z,1.70
2023-04-15T13:51:39.049Z,1.83
2023-04-15T13:54:09.069Z,1.73
2023-04-15T13:56:37.583Z,1.67
2023-04-15T13:59:06.765Z,2.10
2023-04-15T14:01:36.019Z,2.60
2023-04-15T14:04:04.664Z,2.67
2023-04-15T14:06:33.639Z,2.20
2023-04-15T14:09:01.892Z,2.20
2023-04-15T14:11:31.492Z,1.37
2023-04-15T14:13:59.644Z,2.53
2023-04-15T14:16:28.233Z,2.10
2023-04-15T14:18:58.166Z,2.57
2023-04-15T14:21:26.521Z,1.83
2023-04-15T14:23:56.358Z,1.80
2023-04-15T14:26:25.256Z,1.80
2023-04-15T14:28:56.212Z,2.23
2023-04-15T14:31:25.724Z,1.90
2023-04-15T14:33:54.373Z,1.70
2023-04-15T14:36:23.006Z,1.87
2023-04-15T14:38:51.710Z,2.37
2023-04-15T14:41:20.053Z,1.73
2023-04-15T14:43:48.652Z,1.80
2023-04-15T14:46:18.500Z,2.23
2023-04-15T14:48:46.964Z,1.90
2023-04-15T14:51:15.880Z,1.97
2023-04-15T14:53:44.676Z,2.30
2023-04-15T14:56:13.191Z,2.80
2023-04-15T14:58:41.511Z,2.23
2023-04-15T15:01:10.209Z,2.37
2023-04-15T15:03:40.533Z,2.17
2023-04-15T15:06:09.726Z,2.77
2023-04-15T15:08:38.379Z,2.37
2023-04-15T15:11:06.695Z,2.93
2023-04-15T15:13:35.235Z,2.20
2023-04-15T15:16:04.022Z,3.20
2023-04-15T15:18:32.934Z,2.10
2023-04-15T15:21:02.877Z,2.20
2023-04-15T15:23:32.204Z,1.90
2023-04-15T15:26:01.771Z,1.67
2023-04-15T15:28:30.166Z,2.87
2023-04-15T15:30:58.447Z,2.13
2023-04-15T15:33:28.084Z,1.70
2023-04-15T15:35:59.358Z,1.90
2023-04-15T15:38:29.469Z,3.67
2023-04-15T15:40:58.039Z,1.90
2023-04-15T15:43:26.316Z,1.73
2023-04-15T15:45:55.747Z,2.17
2023-04-15T15:48:24.868Z,2.17
2023-04-15T15:50:53.856Z,2.07
2023-04-15T15:53:24.468Z,2.50
2023-04-15T15:55:54.291Z,3.40
2023-04-15T15:58:23.404Z,2.30
2023-04-15T16:00:51.816Z,3.57
2023-04-15T16:03:20.406Z,3.17
2023-04-15T16:05:48.981Z,1.87
2023-04-15T16:08:17.272Z,2.27
2023-04-15T16:10:45.993Z,2.07
2023-04-15T16:13:15.702Z,2.40
2023-04-15T16:15:44.162Z,2.17
2023-04-15T16:18:12.695Z,2.27
2023-04-15T16:20:44.348Z,3.67
2023-04-15T16:23:14.753Z,3.53
2023-04-15T16:25:44.556Z,3.93
2023-04-15T16:28:25.755Z,2.07
2023-04-15T16:30:57.357Z,2.50
2023-04-15T16:33:27.014Z,1.93
2023-04-15T16:35:56.043Z,1.50
2023-04-15T16:38:24.504Z,1.40
2023-04-15T16:40:53.101Z,1.10
2023-04-15T16:43:21.922Z,0.90
2023-04-15T16:45:51.601Z,1.00
2023-04-15T16:48:26.972Z,1.00
2023-04-15T16:50:55.650Z,0.80
2023-04-15T16:53:24.401Z,1.13
2023-04-15T16:55:52.786Z,1.30
2023-04-15T16:58:22.840Z,1.27
2023-04-15T17:00:52.335Z,1.20
2023-04-15T17:03:23.035Z,1.40
2023-04-15T17:05:51.454Z,2.53
2023-04-15T17:08:20.711Z,3.93
2023-04-15T17:10:51.890Z,5.23
2023-04-15T17:13:20.678Z,3.47
2023-04-15T17:15:49.453Z,2.40
2023-04-15T17:18:18.252Z,5.97
2023-04-15T17:20:48.075Z,3.83
2023-04-15T17:23:16.741Z,18.60
2023-04-15T17:25:45.530Z,6.73
2023-04-15T17:28:14.236Z,3.60
2023-04-15T17:30:42.689Z,5.47
2023-04-15T17:33:56.045Z,2.00
2023-04-15T17:36:03.455Z,2.50
2023-04-15T17:38:32.574Z,2.40
2023-04-15T17:41:01.269Z,1.93
2023-04-15T17:43:30.863Z,1.67
2023-04-15T17:45:59.661Z,1.77
2023-04-15T17:48:29.021Z,1.93
2023-04-15T17:50:58.377Z,3.03
2023-04-15T17:53:28.763Z,3.90
2023-04-15T17:55:58.352Z,2.80
2023-04-15T17:58:28.684Z,3.10
2023-04-15T18:00:58.097Z,3.93
2023-04-15T18:03:27.765Z,4.13
2023-04-15T18:05:57.921Z,2.83
2023-04-15T18:08:28.588Z,2.00
2023-04-15T18:10:57.722Z,2.17
2023-04-15T18:13:27.129Z,1.80
2023-04-15T18:15:57.783Z,2.20
2023-04-15T18:23:11.481Z,1.67
2023-04-15T18:25:44.019Z,1.60
2023-04-15T18:28:15.286Z,4.20
2023-04-15T18:30:45.892Z,3.87
2023-04-15T18:33:15.761Z,4.90
2023-04-15T18:35:44.440Z,4.13
2023-04-15T18:38:13.654Z,3.53
2023-04-15T18:40:44.959Z,4.90
2023-04-15T18:43:13.937Z,4.27
2023-04-15T18:45:43.161Z,10.67
2023-04-15T18:48:11.988Z,7.70
2023-04-15T18:50:41.439Z,12.53
2023-04-15T18:53:10.604Z,9.73
2023-04-15T18:55:41.224Z,9.20
2023-04-15T18:58:11.987Z,9.27
2023-04-15T19:00:41.939Z,7.30
2023-04-15T19:03:11.872Z,6.23
2023-04-15T19:05:43.286Z,3.17
2023-04-15T19:08:12.933Z,4.93
2023-04-15T19:10:42.337Z,3.93
2023-04-15T19:13:18.792Z,4.17
2023-04-15T19:15:50.749Z,5.70
2023-04-15T19:18:20.495Z,8.77
2023-04-15T19:20:52.777Z,10.23
2023-04-15T19:23:22.525Z,8.67
2023-04-15T19:25:52.259Z,9.53
2023-04-15T19:28:22.184Z,6.90
2023-04-15T19:30:55.761Z,5.67
2023-04-15T19:33:27.570Z,4.87
2023-04-15T19:35:56.710Z,5.00
2023-04-15T19:38:25.306Z,6.77
2023-04-15T19:40:56.112Z,8.30
2023-04-15T19:43:26.570Z,10.23
2023-04-15T19:45:59.565Z,10.53
2023-04-15T19:48:28.819Z,7.87
2023-04-15T19:51:00.573Z,12.40
2023-04-15T19:53:30.250Z,11.17
2023-04-15T19:55:59.595Z,9.13
2023-04-15T19:58:30.151Z,5.40
2023-04-15T20:00:59.495Z,4.33
2023-04-15T20:03:29.400Z,6.40
2023-04-15T20:06:00.744Z,6.53
2023-04-15T20:08:32.773Z,5.60
2023-04-15T20:11:02.121Z,9.07
2023-04-15T20:13:33.696Z,7.53
2023-04-15T20:16:03.332Z,9.23
2023-04-15T20:18:35.368Z,7.80
2023-04-15T20:21:06.831Z,5.07
2023-04-15T20:23:43.122Z,5.67
2023-04-15T20:26:21.505Z,4.50
2023-04-15T20:28:52.164Z,6.03
2023-04-15T20:31:23.603Z,7.57
2023-04-15T20:33:53.187Z,8.13
2023-04-15T20:36:22.883Z,8.70
2023-04-15T20:38:55.338Z,7.63
2023-04-15T20:41:25.415Z,7.33
2023-04-15T20:43:57.965Z,5.23
2023-04-15T20:46:27.817Z,6.33
2023-04-15T20:48:56.872Z,4.87
2023-04-15T20:51:25.344Z,8.37
2023-04-15T20:53:54.198Z,7.33
2023-04-15T20:56:23.804Z,5.57
2023-04-15T20:58:52.567Z,6.03
2023-04-15T21:01:23.755Z,3.83
2023-04-15T21:03:52.478Z,4.30
2023-04-15T21:06:21.363Z,3.63
2023-04-15T21:08:50.046Z,4.13
2023-04-15T21:11:33.215Z,3.97
2023-04-15T21:14:08.765Z,4.97
2023-04-15T21:16:38.346Z,4.30
2023-04-15T21:19:06.843Z,5.83
2023-04-15T21:21:35.671Z,5.10
2023-04-15T21:24:04.178Z,5.13
2023-04-15T21:26:32.492Z,4.60
2023-04-15T21:29:40.473Z,4.83
2023-04-15T21:32:28.967Z,6.93
2023-04-15T21:35:29.501Z,6.17
2023-04-15T21:38:02.683Z,6.07
2023-04-15T21:40:31.108Z,5.30
2023-04-15T21:42:59.428Z,4.23
2023-04-15T21:45:27.609Z,4.87
2023-04-15T21:48:07.744Z,4.23
2023-04-15T21:50:37.561Z,5.57
2023-04-15T21:53:05.946Z,4.80
2023-04-15T21:55:34.288Z,5.73
2023-04-15T21:58:02.477Z,8.17
2023-04-15T22:00:30.887Z,6.67
2023-04-15T22:03:00.630Z,9.33
2023-04-15T22:05:29.035Z,8.10
2023-04-15T22:07:58.420Z,6.60
2023-04-15T22:10:26.761Z,8.30
2023-04-15T22:12:57.079Z,6.20
2023-04-15T22:15:25.235Z,5.73
2023-04-15T22:17:53.526Z,4.80
2023-04-15T22:20:23.242Z,5.27
2023-04-15T22:22:54.373Z,4.20
2023-04-15T22:25:22.999Z,5.93
2023-04-15T22:27:51.240Z,4.23
2023-04-15T22:30:19.471Z,6.07
2023-04-15T22:32:47.918Z,6.23
2023-04-15T22:35:16.191Z,5.63
2023-04-15T22:37:45.793Z,5.50
2023-04-15T22:40:14.373Z,4.57
2023-04-15T22:42:42.590Z,6.33
2023-04-15T22:45:11.595Z,4.63
2023-04-15T22:47:39.889Z,6.83
2023-04-15T22:50:09.378Z,9.30
2023-04-15T22:52:38.033Z,4.40
2023-04-15T22:55:08.941Z,4.10
2023-04-15T22:57:37.330Z,5.80
2023-04-15T23:00:06.482Z,5.10
2023-04-15T23:02:34.965Z,8.57
2023-04-15T23:05:06.289Z,5.27
2023-04-15T23:07:41.381Z,4.47
2023-04-15T23:10:11.760Z,4.90
2023-04-15T23:12:40.058Z,4.70
2023-04-15T23:15:09.592Z,4.17
2023-04-15T23:17:37.799Z,5.13
2023-04-15T23:20:06.762Z,4.77
2023-04-15T23:22:37.708Z,6.63
2023-04-15T23:25:06.528Z,5.20
2023-04-15T23:27:36.238Z,5.27
2023-04-15T23:30:05.077Z,4.67
2023-04-15T23:32:33.351Z,5.37
2023-04-15T23:35:01.683Z,4.97
2023-04-15T23:37:31.627Z,4.87
2023-04-15T23:39:59.926Z,5.43
2023-04-15T23:42:28.332Z,4.43
2023-04-15T23:44:57.916Z,6.33
2023-04-15T23:47:26.139Z,5.47
2023-04-15T23:49:54.463Z,7.23
2023-04-15T23:52:23.462Z,6.93
2023-04-15T23:54:51.648Z,5.40
2023-04-15T23:57:20.101Z,5.37
2023-04-15T23:59:48.247Z,5.00
